sensor_id;sensor_type;location;lat;lon;timestamp;P1;durP1;ratioP1;P2;durP2;ratioP2
52102;SDS011;38101;53.126;6.878;2023-04-06T00:01:06;11.77;;;8.85;;
52102;SDS011;38101;53.126;6.878;2023-04-06T00:03:33;11.43;;;8.25;;
52102;SDS011;38101;53.126;6.878;2023-04-06T00:05:59;12.23;;;8.43;;
52102;SDS011;38101;53.126;6.878;2023-04-06T00:08:25;11.35;;;8.52;;
52102;SDS011;38101;53.126;6.878;2023-04-06T00:10:52;12.32;;;8.65;;
52102;SDS011;38101;53.126;6.878;2023-04-06T00:13:18;11.65;;;8.80;;
52102;SDS011;38101;53.126;6.878;2023-04-06T00:15:43;11.57;;;8.52;;
52102;SDS011;38101;53.126;6.878;2023-04-06T00:18:09;12.55;;;9.68;;
52102;SDS011;38101;53.126;6.878;2023-04-06T00:20:35;11.88;;;9.02;;
52102;SDS011;38101;53.126;6.878;2023-04-06T00:23:01;12.23;;;8.68;;
52102;SDS011;38101;53.126;6.878;2023-04-06T00:25:27;11.18;;;9.05;;
52102;SDS011;38101;53.126;6.878;2023-04-06T00:27:53;12.48;;;9.38;;
52102;SDS011;38101;53.126;6.878;2023-04-06T00:30:19;12.73;;;8.50;;
52102;SDS011;38101;53.126;6.878;2023-04-06T00:32:45;12.80;;;8.63;;
52102;SDS011;38101;53.126;6.878;2023-04-06T00:35:10;12.73;;;9.77;;
52102;SDS011;38101;53.126;6.878;2023-04-06T00:37:36;10.80;;;8.32;;
52102;SDS011;38101;53.126;6.878;2023-04-06T00:40:02;13.13;;;9.25;;
52102;SDS011;38101;53.126;6.878;2023-04-06T00:42:28;11.75;;;9.30;;
52102;SDS011;38101;53.126;6.878;2023-04-06T00:44:55;12.32;;;9.40;;
52102;SDS011;38101;53.126;6.878;2023-04-06T00:47:23;12.23;;;9.40;;
52102;SDS011;38101;53.126;6.878;2023-04-06T00:49:53;12.98;;;9.35;;
52102;SDS011;38101;53.126;6.878;2023-04-06T00:52:19;14.45;;;9.70;;
52102;SDS011;38101;53.126;6.878;2023-04-06T00:54:45;12.18;;;9.80;;
52102;SDS011;38101;53.126;6.878;2023-04-06T00:57:12;11.05;;;9.05;;
52102;SDS011;38101;53.126;6.878;2023-04-06T00:59:38;11.35;;;9.10;;
52102;SDS011;38101;53.126;6.878;2023-04-06T01:02:05;13.40;;;9.82;;
52102;SDS011;38101;53.126;6.878;2023-04-06T01:04:32;13.27;;;9.27;;
52102;SDS011;38101;53.126;6.878;2023-04-06T01:06:59;13.23;;;9.65;;
52102;SDS011;38101;53.126;6.878;2023-04-06T01:09:24;12.57;;;9.40;;
52102;SDS011;38101;53.126;6.878;2023-04-06T01:11:52;13.77;;;9.93;;
52102;SDS011;38101;53.126;6.878;2023-04-06T01:14:18;13.52;;;9.80;;
52102;SDS011;38101;53.126;6.878;2023-04-06T01:16:44;11.63;;;9.48;;
52102;SDS011;38101;53.126;6.878;2023-04-06T01:19:10;14.70;;;10.00;;
52102;SDS011;38101;53.126;6.878;2023-04-06T01:21:37;13.38;;;10.40;;
52102;SDS011;38101;53.126;6.878;2023-04-06T01:24:05;16.45;;;10.20;;
52102;SDS011;38101;53.126;6.878;2023-04-06T01:26:31;13.48;;;9.85;;
52102;SDS011;38101;53.126;6.878;2023-04-06T01:28:58;12.80;;;9.68;;
52102;SDS011;38101;53.126;6.878;2023-04-06T01:31:24;14.13;;;10.32;;
52102;SDS011;38101;53.126;6.878;2023-04-06T01:33:51;12.98;;;9.77;;
52102;SDS011;38101;53.126;6.878;2023-04-06T01:36:17;14.70;;;10.20;;
52102;SDS011;38101;53.126;6.878;2023-04-06T01:38:44;13.52;;;9.93;;
52102;SDS011;38101;53.126;6.878;2023-04-06T01:41:10;15.48;;;10.05;;
52102;SDS011;38101;53.126;6.878;2023-04-06T01:43:36;12.65;;;10.52;;
52102;SDS011;38101;53.126;6.878;2023-04-06T01:46:02;15.50;;;10.48;;
52102;SDS011;38101;53.126;6.878;2023-04-06T01:48:29;15.50;;;10.70;;
52102;SDS011;38101;53.126;6.878;2023-04-06T01:50:55;15.32;;;10.50;;
52102;SDS011;38101;53.126;6.878;2023-04-06T01:53:21;11.52;;;9.57;;
52102;SDS011;38101;53.126;6.878;2023-04-06T01:55:47;12.32;;;10.02;;
52102;SDS011;38101;53.126;6.878;2023-04-06T01:58:13;13.38;;;10.43;;
52102;SDS011;38101;53.126;6.878;2023-04-06T02:00:39;13.85;;;10.35;;
52102;SDS011;38101;53.126;6.878;2023-04-06T02:03:05;12.88;;;9.50;;
52102;SDS011;38101;53.126;6.878;2023-04-06T02:05:32;12.40;;;9.80;;
52102;SDS011;38101;53.126;6.878;2023-04-06T02:08:03;12.80;;;10.27;;
52102;SDS011;38101;53.126;6.878;2023-04-06T02:10:30;12.98;;;10.05;;
52102;SDS011;38101;53.126;6.878;2023-04-06T02:12:57;12.40;;;10.20;;
52102;SDS011;38101;53.126;6.878;2023-04-06T02:15:23;15.07;;;9.98;;
52102;SDS011;38101;53.126;6.878;2023-04-06T02:17:49;12.18;;;9.10;;
52102;SDS011;38101;53.126;6.878;2023-04-06T02:20:15;13.13;;;10.57;;
52102;SDS011;38101;53.126;6.878;2023-04-06T02:22:41;13.73;;;10.27;;
52102;SDS011;38101;53.126;6.878;2023-04-06T02:25:07;13.38;;;9.73;;
52102;SDS011;38101;53.126;6.878;2023-04-06T02:27:33;12.73;;;9.80;;
52102;SDS011;38101;53.126;6.878;2023-04-06T02:30:00;13.32;;;9.77;;
52102;SDS011;38101;53.126;6.878;2023-04-06T02:32:26;14.40;;;9.38;;
52102;SDS011;38101;53.126;6.878;2023-04-06T02:34:52;12.40;;;10.05;;
52102;SDS011;38101;53.126;6.878;2023-04-06T02:37:17;13.57;;;10.13;;
52102;SDS011;38101;53.126;6.878;2023-04-06T02:39:43;12.52;;;10.02;;
52102;SDS011;38101;53.126;6.878;2023-04-06T02:42:10;12.73;;;10.02;;
52102;SDS011;38101;53.126;6.878;2023-04-06T02:44:36;10.75;;;9.18;;
52102;SDS011;38101;53.126;6.878;2023-04-06T02:47:01;12.65;;;10.32;;
52102;SDS011;38101;53.126;6.878;2023-04-06T02:49:27;14.88;;;10.70;;
52102;SDS011;38101;53.126;6.878;2023-04-06T02:51:53;12.48;;;10.40;;
52102;SDS011;38101;53.126;6.878;2023-04-06T02:54:19;13.75;;;10.18;;
52102;SDS011;38101;53.126;6.878;2023-04-06T02:56:45;13.48;;;9.63;;
52102;SDS011;38101;53.126;6.878;2023-04-06T02:59:11;13.27;;;9.93;;
52102;SDS011;38101;53.126;6.878;2023-04-06T03:01:36;13.45;;;10.43;;
52102;SDS011;38101;53.126;6.878;2023-04-06T03:04:02;15.55;;;10.43;;
52102;SDS011;38101;53.126;6.878;2023-04-06T03:06:28;14.05;;;10.30;;
52102;SDS011;38101;53.126;6.878;2023-04-06T03:08:54;11.52;;;10.05;;
52102;SDS011;38101;53.126;6.878;2023-04-06T03:11:20;12.82;;;10.68;;
52102;SDS011;38101;53.126;6.878;2023-04-06T03:13:45;13.52;;;10.05;;
52102;SDS011;38101;53.126;6.878;2023-04-06T03:16:11;13.25;;;10.00;;
52102;SDS011;38101;53.126;6.878;2023-04-06T03:18:37;12.35;;;10.02;;
52102;SDS011;38101;53.126;6.878;2023-04-06T03:21:03;14.38;;;10.48;;
52102;SDS011;38101;53.126;6.878;2023-04-06T03:23:29;15.73;;;10.55;;
52102;SDS011;38101;53.126;6.878;2023-04-06T03:25:55;13.88;;;10.27;;
52102;SDS011;38101;53.126;6.878;2023-04-06T03:28:21;13.25;;;10.68;;
52102;SDS011;38101;53.126;6.878;2023-04-06T03:30:46;12.00;;;9.80;;
52102;SDS011;38101;53.126;6.878;2023-04-06T03:33:12;15.20;;;10.65;;
52102;SDS011;38101;53.126;6.878;2023-04-06T03:35:38;13.68;;;10.40;;
52102;SDS011;38101;53.126;6.878;2023-04-06T03:38:04;12.75;;;9.85;;
52102;SDS011;38101;53.126;6.878;2023-04-06T03:40:30;14.65;;;10.60;;
52102;SDS011;38101;53.126;6.878;2023-04-06T03:42:56;13.10;;;10.20;;
52102;SDS011;38101;53.126;6.878;2023-04-06T03:45:22;16.02;;;10.90;;
52102;SDS011;38101;53.126;6.878;2023-04-06T03:47:48;14.15;;;10.25;;
52102;SDS011;38101;53.126;6.878;2023-04-06T03:50:14;14.68;;;10.43;;
52102;SDS011;38101;53.126;6.878;2023-04-06T03:52:40;14.32;;;10.23;;
52102;SDS011;38101;53.126;6.878;2023-04-06T03:55:06;13.85;;;10.13;;
52102;SDS011;38101;53.126;6.878;2023-04-06T03:57:32;13.25;;;10.00;;
52102;SDS011;38101;53.126;6.878;2023-04-06T03:59:58;11.55;;;9.55;;
52102;SDS011;38101;53.126;6.878;2023-04-06T04:02:24;17.23;;;10.68;;
52102;SDS011;38101;53.126;6.878;2023-04-06T04:04:50;13.88;;;10.02;;
52102;SDS011;38101;53.126;6.878;2023-04-06T04:07:16;13.18;;;10.35;;
52102;SDS011;38101;53.126;6.878;2023-04-06T04:09:42;13.00;;;10.07;;
52102;SDS011;38101;53.126;6.878;2023-04-06T04:12:08;13.70;;;9.90;;
52102;SDS011;38101;53.126;6.878;2023-04-06T04:14:33;14.05;;;10.63;;
52102;SDS011;38101;53.126;6.878;2023-04-06T04:16:59;13.82;;;10.43;;
52102;SDS011;38101;53.126;6.878;2023-04-06T04:19:25;13.27;;;9.73;;
52102;SDS011;38101;53.126;6.878;2023-04-06T04:21:51;14.05;;;10.32;;
52102;SDS011;38101;53.126;6.878;2023-04-06T04:24:16;13.88;;;10.32;;
52102;SDS011;38101;53.126;6.878;2023-04-06T04:26:42;14.38;;;10.23;;
52102;SDS011;38101;53.126;6.878;2023-04-06T04:29:09;13.13;;;10.13;;
52102;SDS011;38101;53.126;6.878;2023-04-06T04:31:35;14.77;;;10.85;;
52102;SDS011;38101;53.126;6.878;2023-04-06T04:34:01;13.00;;;10.05;;
52102;SDS011;38101;53.126;6.878;2023-04-06T04:36:26;13.25;;;10.02;;
52102;SDS011;38101;53.126;6.878;2023-04-06T04:38:52;13.75;;;10.35;;
52102;SDS011;38101;53.126;6.878;2023-04-06T04:41:18;13.07;;;10.13;;
52102;SDS011;38101;53.126;6.878;2023-04-06T04:43:44;13.77;;;10.40;;
52102;SDS011;38101;53.126;6.878;2023-04-06T04:46:10;13.70;;;9.65;;
52102;SDS011;38101;53.126;6.878;2023-04-06T04:48:36;11.80;;;9.45;;
52102;SDS011;38101;53.126;6.878;2023-04-06T04:51:02;13.93;;;9.32;;
52102;SDS011;38101;53.126;6.878;2023-04-06T04:53:28;14.52;;;9.75;;
52102;SDS011;38101;53.126;6.878;2023-04-06T04:55:54;13.93;;;9.43;;
52102;SDS011;38101;53.126;6.878;2023-04-06T04:58:20;11.05;;;9.02;;
52102;SDS011;38101;53.126;6.878;2023-04-06T05:00:46;13.25;;;9.98;;
52102;SDS011;38101;53.126;6.878;2023-04-06T05:03:14;13.90;;;9.90;;
52102;SDS011;38101;53.126;6.878;2023-04-06T05:05:47;13.35;;;9.68;;
52102;SDS011;38101;53.126;6.878;2023-04-06T05:08:13;12.70;;;10.00;;
52102;SDS011;38101;53.126;6.878;2023-04-06T05:10:39;12.07;;;9.27;;
52102;SDS011;38101;53.126;6.878;2023-04-06T05:13:05;13.93;;;9.55;;
52102;SDS011;38101;53.126;6.878;2023-04-06T05:15:31;11.77;;;9.00;;
52102;SDS011;38101;53.126;6.878;2023-04-06T05:18:00;13.50;;;9.88;;
52102;SDS011;38101;53.126;6.878;2023-04-06T05:20:26;11.40;;;9.23;;
52102;SDS011;38101;53.126;6.878;2023-04-06T05:22:53;15.23;;;9.50;;
52102;SDS011;38101;53.126;6.878;2023-04-06T05:25:19;12.68;;;9.23;;
52102;SDS011;38101;53.126;6.878;2023-04-06T05:27:45;12.25;;;9.40;;
52102;SDS011;38101;53.126;6.878;2023-04-06T05:30:11;11.98;;;9.18;;
52102;SDS011;38101;53.126;6.878;2023-04-06T05:32:36;12.48;;;10.00;;
52102;SDS011;38101;53.126;6.878;2023-04-06T05:35:02;13.55;;;9.43;;
52102;SDS011;38101;53.126;6.878;2023-04-06T05:37:28;12.30;;;9.18;;
52102;SDS011;38101;53.126;6.878;2023-04-06T05:39:54;12.27;;;9.65;;
52102;SDS011;38101;53.126;6.878;2023-04-06T05:42:20;12.93;;;9.77;;
52102;SDS011;38101;53.126;6.878;2023-04-06T05:44:47;14.43;;;9.48;;
52102;SDS011;38101;53.126;6.878;2023-04-06T05:47:12;11.73;;;9.48;;
52102;SDS011;38101;53.126;6.878;2023-04-06T05:49:38;13.23;;;9.70;;
52102;SDS011;38101;53.126;6.878;2023-04-06T05:52:04;15.32;;;10.10;;
52102;SDS011;38101;53.126;6.878;2023-04-06T05:54:30;12.88;;;9.77;;
52102;SDS011;38101;53.126;6.878;2023-04-06T05:56:55;12.50;;;10.00;;
52102;SDS011;38101;53.126;6.878;2023-04-06T05:59:21;12.98;;;9.98;;
52102;SDS011;38101;53.126;6.878;2023-04-06T06:01:47;12.35;;;9.85;;
52102;SDS011;38101;53.126;6.878;2023-04-06T06:04:13;15.48;;;10.07;;
52102;SDS011;38101;53.126;6.878;2023-04-06T06:06:38;14.25;;;9.77;;
52102;SDS011;38101;53.126;6.878;2023-04-06T06:09:04;12.38;;;9.20;;
52102;SDS011;38101;53.126;6.878;2023-04-06T06:11:30;15.27;;;10.55;;
52102;SDS011;38101;53.126;6.878;2023-04-06T06:13:56;12.95;;;9.82;;
52102;SDS011;38101;53.126;6.878;2023-04-06T06:16:22;13.07;;;10.07;;
52102;SDS011;38101;53.126;6.878;2023-04-06T06:18:47;13.40;;;10.02;;
52102;SDS011;38101;53.126;6.878;2023-04-06T06:21:13;12.43;;;9.23;;
52102;SDS011;38101;53.126;6.878;2023-04-06T06:23:41;12.98;;;9.00;;
52102;SDS011;38101;53.126;6.878;2023-04-06T06:26:07;13.52;;;9.82;;
52102;SDS011;38101;53.126;6.878;2023-04-06T06:28:33;14.93;;;10.13;;
52102;SDS011;38101;53.126;6.878;2023-04-06T06:30:59;15.25;;;10.40;;
52102;SDS011;38101;53.126;6.878;2023-04-06T06:33:26;12.88;;;9.63;;
52102;SDS011;38101;53.126;6.878;2023-04-06T06:35:51;13.32;;;9.50;;
52102;SDS011;38101;53.126;6.878;2023-04-06T06:38:17;14.43;;;9.60;;
52102;SDS011;38101;53.126;6.878;2023-04-06T06:40:44;12.45;;;9.15;;
52102;SDS011;38101;53.126;6.878;2023-04-06T06:43:11;13.15;;;9.50;;
52102;SDS011;38101;53.126;6.878;2023-04-06T06:45:37;13.02;;;9.07;;
52102;SDS011;38101;53.126;6.878;2023-04-06T06:48:03;13.25;;;9.13;;
52102;SDS011;38101;53.126;6.878;2023-04-06T06:50:28;12.73;;;9.82;;
52102;SDS011;38101;53.126;6.878;2023-04-06T06:52:54;12.85;;;10.18;;
52102;SDS011;38101;53.126;6.878;2023-04-06T06:55:20;15.13;;;9.90;;
52102;SDS011;38101;53.126;6.878;2023-04-06T06:57:46;13.65;;;9.73;;
52102;SDS011;38101;53.126;6.878;2023-04-06T07:00:13;14.85;;;9.95;;
52102;SDS011;38101;53.126;6.878;2023-04-06T07:02:39;11.48;;;9.63;;
52102;SDS011;38101;53.126;6.878;2023-04-06T07:05:06;12.68;;;9.65;;
52102;SDS011;38101;53.126;6.878;2023-04-06T07:07:32;12.38;;;9.50;;
52102;SDS011;38101;53.126;6.878;2023-04-06T07:09:58;13.05;;;10.00;;
52102;SDS011;38101;53.126;6.878;2023-04-06T07:12:25;11.85;;;9.57;;
52102;SDS011;38101;53.126;6.878;2023-04-06T07:14:50;12.50;;;9.85;;
52102;SDS011;38101;53.126;6.878;2023-04-06T07:17:16;14.05;;;10.27;;
52102;SDS011;38101;53.126;6.878;2023-04-06T07:19:42;11.80;;;9.30;;
52102;SDS011;38101;53.126;6.878;2023-04-06T07:22:08;15.50;;;9.85;;
52102;SDS011;38101;53.126;6.878;2023-04-06T07:24:34;13.10;;;9.38;;
52102;SDS011;38101;53.126;6.878;2023-04-06T07:27:00;10.98;;;9.23;;
52102;SDS011;38101;53.126;6.878;2023-04-06T07:29:26;12.65;;;10.10;;
52102;SDS011;38101;53.126;6.878;2023-04-06T07:31:52;11.88;;;9.18;;
52102;SDS011;38101;53.126;6.878;2023-04-06T07:34:18;14.88;;;10.13;;
52102;SDS011;38101;53.126;6.878;2023-04-06T07:36:44;22.48;;;10.10;;
52102;SDS011;38101;53.126;6.878;2023-04-06T07:39:10;11.57;;;9.60;;
52102;SDS011;38101;53.126;6.878;2023-04-06T07:41:36;12.60;;;10.20;;
52102;SDS011;38101;53.126;6.878;2023-04-06T07:44:02;12.00;;;10.05;;
52102;SDS011;38101;53.126;6.878;2023-04-06T07:46:29;12.85;;;9.85;;
52102;SDS011;38101;53.126;6.878;2023-04-06T07:48:56;12.98;;;9.82;;
52102;SDS011;38101;53.126;6.878;2023-04-06T07:51:23;13.10;;;9.70;;
52102;SDS011;38101;53.126;6.878;2023-04-06T07:53:50;12.55;;;9.95;;
52102;SDS011;38101;53.126;6.878;2023-04-06T07:56:16;12.13;;;10.02;;
52102;SDS011;38101;53.126;6.878;2023-04-06T07:58:42;13.68;;;10.82;;
52102;SDS011;38101;53.126;6.878;2023-04-06T08:01:08;13.00;;;9.77;;
52102;SDS011;38101;53.126;6.878;2023-04-06T08:03:34;15.05;;;10.93;;
52102;SDS011;38101;53.126;6.878;2023-04-06T08:06:00;12.40;;;10.00;;
52102;SDS011;38101;53.126;6.878;2023-04-06T08:08:27;14.90;;;10.75;;
52102;SDS011;38101;53.126;6.878;2023-04-06T08:10:54;12.80;;;10.10;;
52102;SDS011;38101;53.126;6.878;2023-04-06T08:13:20;12.40;;;10.45;;
52102;SDS011;38101;53.126;6.878;2023-04-06T08:15:46;13.88;;;11.00;;
52102;SDS011;38101;53.126;6.878;2023-04-06T08:18:12;14.45;;;10.50;;
52102;SDS011;38101;53.126;6.878;2023-04-06T08:20:38;12.77;;;10.65;;
52102;SDS011;38101;53.126;6.878;2023-04-06T08:23:04;14.57;;;10.77;;
52102;SDS011;38101;53.126;6.878;2023-04-06T08:25:33;16.73;;;10.68;;
52102;SDS011;38101;53.126;6.878;2023-04-06T08:28:00;13.73;;;10.65;;
52102;SDS011;38101;53.126;6.878;2023-04-06T08:30:27;13.00;;;10.23;;
52102;SDS011;38101;53.126;6.878;2023-04-06T08:32:53;15.52;;;9.90;;
52102;SDS011;38101;53.126;6.878;2023-04-06T08:35:19;12.50;;;10.27;;
52102;SDS011;38101;53.126;6.878;2023-04-06T08:37:45;11.75;;;9.70;;
52102;SDS011;38101;53.126;6.878;2023-04-06T08:40:11;11.95;;;9.70;;
52102;SDS011;38101;53.126;6.878;2023-04-06T08:42:49;14.57;;;10.38;;
52102;SDS011;38101;53.126;6.878;2023-04-06T08:45:17;14.60;;;10.45;;
52102;SDS011;38101;53.126;6.878;2023-04-06T08:47:46;15.10;;;10.23;;
52102;SDS011;38101;53.126;6.878;2023-04-06T08:50:13;12.77;;;9.95;;
52102;SDS011;38101;53.126;6.878;2023-04-06T08:52:41;12.90;;;9.98;;
52102;SDS011;38101;53.126;6.878;2023-04-06T08:55:09;14.18;;;10.05;;
52102;SDS011;38101;53.126;6.878;2023-04-06T08:57:35;11.30;;;9.90;;
52102;SDS011;38101;53.126;6.878;2023-04-06T09:00:02;12.23;;;9.75;;
52102;SDS011;38101;53.126;6.878;2023-04-06T09:02:29;11.48;;;9.15;;
52102;SDS011;38101;53.126;6.878;2023-04-06T09:04:55;12.07;;;10.05;;
52102;SDS011;38101;53.126;6.878;2023-04-06T09:07:22;13.95;;;9.85;;
52102;SDS011;38101;53.126;6.878;2023-04-06T09:09:49;13.57;;;8.98;;
52102;SDS011;38101;53.126;6.878;2023-04-06T09:12:23;14.10;;;9.98;;
52102;SDS011;38101;53.126;6.878;2023-04-06T09:14:51;14.05;;;9.30;;
52102;SDS011;38101;53.126;6.878;2023-04-06T09:17:21;14.52;;;9.93;;
52102;SDS011;38101;53.126;6.878;2023-04-06T09:19:47;12.02;;;9.68;;
52102;SDS011;38101;53.126;6.878;2023-04-06T09:22:13;12.88;;;9.32;;
52102;SDS011;38101;53.126;6.878;2023-04-06T09:24:40;11.90;;;9.40;;
52102;SDS011;38101;53.126;6.878;2023-04-06T09:27:09;13.70;;;9.77;;
52102;SDS011;38101;53.126;6.878;2023-04-06T09:29:36;11.63;;;8.63;;
52102;SDS011;38101;53.126;6.878;2023-04-06T09:32:04;12.77;;;9.52;;
52102;SDS011;38101;53.126;6.878;2023-04-06T09:34:31;10.15;;;8.45;;
52102;SDS011;38101;53.126;6.878;2023-04-06T09:36:58;12.20;;;9.15;;
52102;SDS011;38101;53.126;6.878;2023-04-06T09:39:24;12.00;;;8.52;;
52102;SDS011;38101;53.126;6.878;2023-04-06T09:41:51;12.40;;;8.90;;
52102;SDS011;38101;53.126;6.878;2023-04-06T09:44:18;12.70;;;9.13;;
52102;SDS011;38101;53.126;6.878;2023-04-06T09:46:45;11.10;;;8.82;;
52102;SDS011;38101;53.126;6.878;2023-04-06T09:49:12;15.35;;;9.18;;
52102;SDS011;38101;53.126;6.878;2023-04-06T09:51:39;11.82;;;8.75;;
52102;SDS011;38101;53.126;6.878;2023-04-06T09:54:07;13.38;;;10.10;;
52102;SDS011;38101;53.126;6.878;2023-04-06T09:56:39;11.27;;;9.32;;
52102;SDS011;38101;53.126;6.878;2023-04-06T09:59:14;12.70;;;9.07;;
52102;SDS011;38101;53.126;6.878;2023-04-06T10:01:51;14.15;;;9.55;;
52102;SDS011;38101;53.126;6.878;2023-04-06T10:04:28;13.98;;;9.73;;
52102;SDS011;38101;53.126;6.878;2023-04-06T10:07:05;14.50;;;10.13;;
52102;SDS011;38101;53.126;6.878;2023-04-06T10:09:32;15.82;;;11.13;;
52102;SDS011;38101;53.126;6.878;2023-04-06T10:12:03;17.10;;;11.10;;
52102;SDS011;38101;53.126;6.878;2023-04-06T10:14:35;16.33;;;11.85;;
52102;SDS011;38101;53.126;6.878;2023-04-06T10:17:02;14.98;;;10.70;;
52102;SDS011;38101;53.126;6.878;2023-04-06T10:19:30;14.30;;;10.20;;
52102;SDS011;38101;53.126;6.878;2023-04-06T10:22:19;14.75;;;10.93;;
52102;SDS011;38101;53.126;6.878;2023-04-06T10:24:51;15.00;;;11.20;;
52102;SDS011;38101;53.126;6.878;2023-04-06T10:27:26;17.67;;;12.02;;
52102;SDS011;38101;53.126;6.878;2023-04-06T10:29:53;13.55;;;10.57;;
52102;SDS011;38101;53.126;6.878;2023-04-06T10:32:35;15.75;;;11.68;;
52102;SDS011;38101;53.126;6.878;2023-04-06T10:35:08;16.40;;;11.48;;
52102;SDS011;38101;53.126;6.878;2023-04-06T10:37:50;17.42;;;11.70;;
52102;SDS011;38101;53.126;6.878;2023-04-06T10:40:18;16.17;;;11.50;;
52102;SDS011;38101;53.126;6.878;2023-04-06T10:42:46;15.77;;;11.85;;
52102;SDS011;38101;53.126;6.878;2023-04-06T10:45:19;15.38;;;11.90;;
52102;SDS011;38101;53.126;6.878;2023-04-06T10:47:50;19.30;;;12.75;;
52102;SDS011;38101;53.126;6.878;2023-04-06T10:50:18;18.35;;;12.77;;
52102;SDS011;38101;53.126;6.878;2023-04-06T10:52:45;18.13;;;13.50;;
52102;SDS011;38101;53.126;6.878;2023-04-06T10:55:14;16.48;;;11.85;;
52102;SDS011;38101;53.126;6.878;2023-04-06T10:57:40;22.85;;;14.20;;
52102;SDS011;38101;53.126;6.878;2023-04-06T11:00:06;15.80;;;11.95;;
52102;SDS011;38101;53.126;6.878;2023-04-06T11:02:34;16.90;;;13.02;;
52102;SDS011;38101;53.126;6.878;2023-04-06T11:05:01;16.08;;;12.75;;
52102;SDS011;38101;53.126;6.878;2023-04-06T11:07:27;19.40;;;13.75;;
52102;SDS011;38101;53.126;6.878;2023-04-06T11:09:55;19.38;;;13.32;;
52102;SDS011;38101;53.126;6.878;2023-04-06T11:12:25;19.33;;;14.27;;
52102;SDS011;38101;53.126;6.878;2023-04-06T11:14:56;21.17;;;14.70;;
52102;SDS011;38101;53.126;6.878;2023-04-06T11:17:33;17.42;;;13.18;;
52102;SDS011;38101;53.126;6.878;2023-04-06T11:20:01;18.15;;;13.10;;
52102;SDS011;38101;53.126;6.878;2023-04-06T11:22:28;18.08;;;13.75;;
52102;SDS011;38101;53.126;6.878;2023-04-06T11:25:04;17.42;;;14.48;;
52102;SDS011;38101;53.126;6.878;2023-04-06T11:27:32;26.40;;;18.15;;
52102;SDS011;38101;53.126;6.878;2023-04-06T11:29:59;25.13;;;16.27;;
52102;SDS011;38101;53.126;6.878;2023-04-06T11:32:26;22.00;;;16.08;;
52102;SDS011;38101;53.126;6.878;2023-04-06T11:34:52;21.17;;;14.68;;
52102;SDS011;38101;53.126;6.878;2023-04-06T11:37:18;23.50;;;15.55;;
52102;SDS011;38101;53.126;6.878;2023-04-06T11:39:50;18.00;;;14.68;;
52102;SDS011;38101;53.126;6.878;2023-04-06T11:42:21;18.17;;;14.80;;
52102;SDS011;38101;53.126;6.878;2023-04-06T11:44:49;21.52;;;15.85;;
52102;SDS011;38101;53.126;6.878;2023-04-06T11:47:17;21.60;;;16.00;;
52102;SDS011;38101;53.126;6.878;2023-04-06T11:49:44;21.52;;;16.08;;
52102;SDS011;38101;53.126;6.878;2023-04-06T11:52:20;21.35;;;15.95;;
52102;SDS011;38101;53.126;6.878;2023-04-06T11:54:50;23.33;;;16.80;;
52102;SDS011;38101;53.126;6.878;2023-04-06T11:57:18;21.45;;;16.73;;
52102;SDS011;38101;53.126;6.878;2023-04-06T11:59:45;23.40;;;17.08;;
52102;SDS011;38101;53.126;6.878;2023-04-06T12:02:11;24.40;;;17.05;;
52102;SDS011;38101;53.126;6.878;2023-04-06T12:04:37;23.95;;;16.52;;
52102;SDS011;38101;53.126;6.878;2023-04-06T12:07:03;21.40;;;16.67;;
52102;SDS011;38101;53.126;6.878;2023-04-06T12:09:29;33.33;;;17.55;;
52102;SDS011;38101;53.126;6.878;2023-04-06T12:11:55;24.13;;;17.52;;
52102;SDS011;38101;53.126;6.878;2023-04-06T12:14:21;24.48;;;16.50;;
52102;SDS011;38101;53.126;6.878;2023-04-06T12:16:48;25.90;;;17.73;;
52102;SDS011;38101;53.126;6.878;2023-04-06T12:19:13;24.00;;;18.25;;
52102;SDS011;38101;53.126;6.878;2023-04-06T12:21:39;23.45;;;17.73;;
52102;SDS011;38101;53.126;6.878;2023-04-06T12:24:05;22.90;;;17.67;;
52102;SDS011;38101;53.126;6.878;2023-04-06T12:26:32;24.33;;;18.73;;
52102;SDS011;38101;53.126;6.878;2023-04-06T12:28:58;23.25;;;18.70;;
52102;SDS011;38101;53.126;6.878;2023-04-06T12:31:36;22.88;;;17.90;;
52102;SDS011;38101;53.126;6.878;2023-04-06T12:34:10;24.73;;;18.52;;
52102;SDS011;38101;53.126;6.878;2023-04-06T12:36:36;21.67;;;17.38;;
52102;SDS011;38101;53.126;6.878;2023-04-06T12:39:02;22.67;;;17.67;;
52102;SDS011;38101;53.126;6.878;2023-04-06T12:41:28;20.65;;;17.15;;
52102;SDS011;38101;53.126;6.878;2023-04-06T12:43:54;21.05;;;16.77;;
52102;SDS011;38101;53.126;6.878;2023-04-06T12:46:20;21.40;;;16.63;;
52102;SDS011;38101;53.126;6.878;2023-04-06T12:48:46;22.50;;;17.83;;
52102;SDS011;38101;53.126;6.878;2023-04-06T12:51:13;22.20;;;18.23;;
52102;SDS011;38101;53.126;6.878;2023-04-06T12:53:38;23.98;;;18.02;;
52102;SDS011;38101;53.126;6.878;2023-04-06T12:56:12;25.73;;;19.02;;
52102;SDS011;38101;53.126;6.878;2023-04-06T12:58:39;20.35;;;17.52;;
52102;SDS011;38101;53.126;6.878;2023-04-06T13:01:08;23.33;;;17.65;;
52102;SDS011;38101;53.126;6.878;2023-04-06T13:03:36;23.17;;;18.00;;
52102;SDS011;38101;53.126;6.878;2023-04-06T13:06:02;21.00;;;17.27;;
52102;SDS011;38101;53.126;6.878;2023-04-06T13:08:28;21.50;;;17.38;;
52102;SDS011;38101;53.126;6.878;2023-04-06T13:10:54;22.70;;;18.73;;
52102;SDS011;38101;53.126;6.878;2023-04-06T13:13:27;21.98;;;17.80;;
52102;SDS011;38101;53.126;6.878;2023-04-06T13:15:55;25.40;;;17.98;;
52102;SDS011;38101;53.126;6.878;2023-04-06T13:18:29;23.90;;;18.33;;
52102;SDS011;38101;53.126;6.878;2023-04-06T13:20:55;21.88;;;18.23;;
52102;SDS011;38101;53.126;6.878;2023-04-06T13:23:22;23.83;;;18.77;;
52102;SDS011;38101;53.126;6.878;2023-04-06T13:25:56;24.35;;;18.98;;
52102;SDS011;38101;53.126;6.878;2023-04-06T13:28:23;22.33;;;18.67;;
52102;SDS011;38101;53.126;6.878;2023-04-06T13:30:49;26.80;;;18.98;;
52102;SDS011;38101;53.126;6.878;2023-04-06T13:33:15;24.73;;;18.40;;
52102;SDS011;38101;53.126;6.878;2023-04-06T13:35:44;23.20;;;19.45;;
52102;SDS011;38101;53.126;6.878;2023-04-06T13:38:10;24.00;;;17.38;;
52102;SDS011;38101;53.126;6.878;2023-04-06T13:40:38;23.92;;;18.98;;
52102;SDS011;38101;53.126;6.878;2023-04-06T13:43:05;30.48;;;18.60;;
52102;SDS011;38101;53.126;6.878;2023-04-06T13:45:31;22.67;;;18.35;;
52102;SDS011;38101;53.126;6.878;2023-04-06T13:47:57;24.38;;;18.63;;
52102;SDS011;38101;53.126;6.878;2023-04-06T13:50:25;24.27;;;17.85;;
52102;SDS011;38101;53.126;6.878;2023-04-06T13:52:51;25.88;;;18.98;;
52102;SDS011;38101;53.126;6.878;2023-04-06T13:55:17;24.05;;;17.58;;
52102;SDS011;38101;53.126;6.878;2023-04-06T13:57:43;23.05;;;18.17;;
52102;SDS011;38101;53.126;6.878;2023-04-06T14:00:09;24.20;;;18.92;;
52102;SDS011;38101;53.126;6.878;2023-04-06T14:02:36;22.48;;;18.45;;
52102;SDS011;38101;53.126;6.878;2023-04-06T14:05:02;23.38;;;18.20;;
52102;SDS011;38101;53.126;6.878;2023-04-06T14:07:28;23.92;;;19.05;;
52102;SDS011;38101;53.126;6.878;2023-04-06T14:09:54;23.23;;;17.50;;
52102;SDS011;38101;53.126;6.878;2023-04-06T14:12:20;24.60;;;18.63;;
52102;SDS011;38101;53.126;6.878;2023-04-06T14:14:45;26.88;;;19.05;;
52102;SDS011;38101;53.126;6.878;2023-04-06T14:17:11;25.13;;;18.08;;
52102;SDS011;38101;53.126;6.878;2023-04-06T14:19:37;21.58;;;17.00;;
52102;SDS011;38101;53.126;6.878;2023-04-06T14:22:03;23.88;;;17.27;;
52102;SDS011;38101;53.126;6.878;2023-04-06T14:24:29;24.98;;;17.92;;